Time;durP1;ratioP1;P1;durP2;ratioP2;P2;SDS_P1;SDS_P2;PMS_P1;PMS_P2;Temp;Humidity;BMP_temperature;BMP_pressure;BME280_temperature;BME280_humidity;BME280_pressure;Samples;Min_cycle;Max_cycle;Signal;HPM_P1;HPM_P2
2021/11/28 00:00:21;;;;;;;7.43;4.80;;;2.20;99.90;;;;;;5092188;28;20528;-68
2021/11/28 00:02:47;;;;;;;5.67;4.47;;;2.20;99.90;;;;;;5090893;28;20501;-68
2021/11/28 00:05:16;;;;;;;6.97;5.10;;;2.20;99.90;;;;;;5091332;28;20448;-69
2021/11/28 00:08:07;;;;;;;5.40;4.23;;;;;;;;;;5091471;28;20539;-69
2021/11/28 00:13:35;;;;;;;5.87;4.13;;;;;;;;;;5090379;28;20537;-69
2021/11/28 00:16:03;;;;;;;7.80;4.40;;;;;;;;;;5089379;28;20517;-69
2021/11/28 00:18:31;;;;;;;5.57;4.43;;;;;;;;;;5091077;28;20513;-69
2021/11/28 00:20:58;;;;;;;7.47;4.20;;;;;;;;;;5080384;28;20444;-69
2021/11/28 00:23:27;;;;;;;4.13;3.73;;;;;;;;;;5091232;28;20453;-69
2021/11/28 00:25:54;;;;;;;5.07;4.47;;;;;;;;;;5090784;28;20807;-69
2021/11/28 00:28:22;;;;;;;6.03;4.53;;;;;;;;;;5090955;28;20458;-69
2021/11/28 00:30:49;;;;;;;4.90;4.10;;;;;;;;;;5090668;28;20476;-69
2021/11/28 00:33:16;;;;;;;8.43;4.30;;;;;;;;;;5090930;28;20500;-69
2021/11/28 00:35:44;;;;;;;5.67;4.53;;;;;;;;;;5100840;28;20468;-69
2021/11/28 00:38:11;;;;;;;5.13;3.80;;;;;;;;;;5099935;28;20457;-70
2021/11/28 00:40:39;;;;;;;4.90;3.63;;;;;;;;;;5091360;28;20539;-70
2021/11/28 00:43:06;;;;;;;6.03;4.23;;;;;;;;;;5089922;28;20555;-69
2021/11/28 00:45:33;;;;;;;4.13;3.50;;;2.10;99.90;;;;;;5091328;28;20440;-70
2021/11/28 00:48:00;;;;;;;5.23;2.80;;;2.70;99.90;;;;;;5090697;28;20532;-69
2021/11/28 00:50:38;;;;;;;3.07;2.70;;;2.70;1.00;;;;;;5091006;28;20445;-69
2021/11/28 00:53:06;;;;;;;4.03;2.90;;;2.90;1.00;;;;;;5089187;28;20468;-69
2021/11/28 00:55:33;;;;;;;5.33;3.07;;;2.80;1.00;;;;;;5091182;28;20446;-69
2021/11/28 00:58:01;;;;;;;4.00;2.90;;;2.80;1.00;;;;;;5090616;28;20445;-69
2021/11/28 01:00:29;;;;;;;5.23;3.03;;;2.80;1.00;;;;;;5090527;28;20455;-70
2021/11/28 01:02:56;;;;;;;8.70;2.83;;;2.70;1.00;;;;;;5090039;28;20460;-70
2021/11/28 01:05:23;;;;;;;4.93;3.50;;;2.70;99.90;;;;;;5090975;28;20459;-70
2021/11/28 01:07:50;;;;;;;11.37;4.80;;;2.70;99.90;;;;;;5090395;28;20448;-69
2021/11/28 01:10:17;;;;;;;3.23;2.60;;;2.60;99.90;;;;;;5090573;28;20447;-69
2021/11/28 01:12:44;;;;;;;6.57;3.97;;;2.50;99.90;;;;;;5090010;28;20568;-70
2021/11/28 01:15:13;;;;;;;4.27;3.00;;;2.40;99.90;;;;;;5090134;28;20452;-69
2021/11/28 01:17:41;;;;;;;4.07;3.30;;;2.40;99.90;;;;;;5090586;28;20545;-69
2021/11/28 01:20:10;;;;;;;5.33;3.43;;;2.50;99.90;;;;;;5089801;28;21116;-70
2021/11/28 01:22:37;;;;;;;3.50;3.13;;;2.60;99.90;;;;;;5079875;28;20437;-70
2021/11/28 01:25:05;;;;;;;4.60;3.20;;;2.70;99.90;;;;;;5092846;28;20483;-70
2021/11/28 01:27:33;;;;;;;3.20;2.80;;;2.60;99.90;;;;;;5094701;28;20445;-69
2021/11/28 01:30:00;;;;;;;4.07;2.70;;;2.70;99.90;;;;;;5093716;28;20448;-70
2021/11/28 01:32:29;;;;;;;6.23;3.07;;;2.60;99.90;;;;;;5093991;28;20502;-70
2021/11/28 01:34:56;;;;;;;6.27;3.20;;;2.50;99.90;;;;;;5093556;28;20481;-69
2021/11/28 01:37:23;;;;;;;4.30;3.23;;;2.60;99.90;;;;;;5094413;28;20527;-70
2021/11/28 01:39:50;;;;;;;6.13;3.40;;;2.40;99.90;;;;;;5094419;28;20827;-69
2021/11/28 01:42:34;;;;;;;5.33;3.40;;;2.50;99.90;;;;;;5093748;28;20445;-69
2021/11/28 01:45:01;;;;;;;3.47;2.70;;;2.70;99.90;;;;;;5093573;28;20476;-70
2021/11/28 01:47:31;;;;;;;6.90;3.00;;;2.90;99.90;;;;;;5094371;28;20878;-70
2021/11/28 01:49:58;;;;;;;6.13;2.83;;;3.00;74.80;;;;;;5093697;28;20444;-70
2021/11/28 01:52:25;;;;;;;3.30;2.50;;;3.00;1.00;;;;;;5093589;28;20591;-69
2021/11/28 01:54:53;;;;;;;3.60;2.73;;;3.00;99.90;;;;;;5093430;28;20479;-70
2021/11/28 01:57:19;;;;;;;4.60;2.73;;;2.80;99.90;;;;;;5094321;28;20539;-69
2021/11/28 01:59:46;;;;;;;3.03;2.20;;;2.70;99.90;;;;;;5094636;28;20529;-70
2021/11/28 02:02:13;;;;;;;4.20;2.17;;;2.80;99.90;;;;;;5092972;28;20479;-70
2021/11/28 02:04:44;;;;;;;4.43;2.47;;;2.60;99.90;;;;;;5094105;28;20459;-71
2021/11/28 02:07:12;;;;;;;3.37;2.60;;;2.70;99.90;;;;;;5093044;28;20964;-70
2021/11/28 02:09:39;;;;;;;3.10;2.10;;;2.80;99.90;;;;;;5094066;28;20444;-69
2021/11/28 02:12:07;;;;;;;2.37;2.17;;;2.90;99.90;;;;;;5092749;28;20523;-71
2021/11/28 02:14:34;;;;;;;7.43;2.87;;;2.90;99.90;;;;;;5093808;28;20468;-69
2021/11/28 02:17:01;;;;;;;2.97;2.20;;;3.00;99.90;;;;;;5093022;28;20442;-69
2021/11/28 02:19:28;;;;;;;4.30;2.77;;;3.10;80.50;;;;;;5093654;28;20532;-69
2021/11/28 02:21:57;;;;;;;9.60;2.63;;;3.10;1.00;;;;;;5092396;28;20444;-69
2021/11/28 02:24:23;;;;;;;5.40;2.27;;;3.10;22.10;;;;;;5093612;28;20441;-70
2021/11/28 02:26:50;;;;;;;3.33;2.50;;;2.80;99.90;;;;;;5093041;28;20436;-69
2021/11/28 02:29:17;;;;;;;2.77;2.40;;;2.70;99.90;;;;;;5093461;28;20548;-69
2021/11/28 02:31:44;;;;;;;2.20;1.67;;;2.70;99.90;;;;;;5093220;28;20530;-71
2021/11/28 02:34:11;;;;;;;2.43;2.17;;;2.50;99.90;;;;;;5092690;28;20500;-69
2021/11/28 02:36:38;;;;;;;2.60;2.13;;;2.60;99.90;;;;;;5095008;28;20451;-70
2021/11/28 02:39:06;;;;;;;3.07;1.90;;;2.70;99.90;;;;;;5109696;28;20449;-69
2021/11/28 02:41:33;;;;;;;2.53;2.30;;;2.80;99.90;;;;;;5111912;28;20479;-69
2021/11/28 02:44:00;;;;;;;2.40;2.20;;;2.80;99.90;;;;;;5094692;28;20471;-70
2021/11/28 02:46:27;;;;;;;8.23;2.30;;;2.90;99.90;;;;;;5092895;28;20944;-70
2021/11/28 02:48:54;;;;;;;2.83;2.20;;;3.10;99.90;;;;;;5092751;28;20440;-69
2021/11/28 02:51:21;;;;;;;2.83;1.97;;;3.00;99.90;;;;;;5092321;28;20944;-70
2021/11/28 02:53:48;;;;;;;2.53;2.00;;;2.80;99.90;;;;;;5092888;28;20918;-68
2021/11/28 02:56:17;;;;;;;2.50;2.30;;;2.80;99.90;;;;;;5093394;28;20445;-70
2021/11/28 02:58:46;;;;;;;2.40;1.93;;;2.60;99.90;;;;;;5092758;28;20441;-70
2021/11/28 03:01:18;;;;;;;2.50;2.10;;;2.60;99.90;;;;;;5092485;28;20510;-70
2021/11/28 03:03:45;;;;;;;4.93;2.30;;;2.70;99.90;;;;;;5092707;28;20465;-70
2021/11/28 03:06:12;;;;;;;3.53;2.60;;;2.90;99.90;;;;;;5092285;28;20449;-70
2021/11/28 03:08:40;;;;;;;2.17;1.97;;;3.00;99.90;;;;;;5092682;28;20521;-69
2021/11/28 03:11:08;;;;;;;3.03;2.20;;;3.10;94.40;;;;;;5091890;28;20441;-70
2021/11/28 03:13:39;;;;;;;3.00;2.30;;;3.30;1.00;;;;;;5092511;28;20476;-70
2021/11/28 03:16:08;;;;;;;2.97;2.20;;;3.40;1.00;;;;;;5091978;28;20445;-69
2021/11/28 03:18:35;;;;;;;3.77;2.47;;;3.30;45.50;;;;;;5091155;28;20539;-69
2021/11/28 03:21:05;;;;;;;4.03;2.77;;;3.30;62.00;;;;;;5090215;28;20450;-70
2021/11/28 03:23:35;;;;;;;4.10;2.23;;;3.30;99.90;;;;;;5092550;28;20531;-69
2021/11/28 03:26:11;;;;;;;5.30;2.43;;;2.90;99.90;;;;;;5092104;28;20883;-70
2021/11/28 03:28:41;;;;;;;8.13;2.50;;;3.00;99.90;;;;;;5092141;28;20452;-69
2021/11/28 03:31:08;;;;;;;4.83;1.97;;;2.80;99.90;;;;;;5091652;28;20786;-70
2021/11/28 03:33:37;;;;;;;3.00;1.90;;;3.00;99.90;;;;;;5091792;28;21012;-70
2021/11/28 03:36:04;;;;;;;3.70;1.90;;;3.30;99.90;;;;;;5091677;28;20472;-69
2021/11/28 03:38:31;;;;;;;4.27;2.17;;;3.30;99.90;;;;;;5092208;28;20440;-70
2021/11/28 03:40:59;;;;;;;3.07;2.37;;;3.30;99.90;;;;;;5090955;28;20893;-69
2021/11/28 03:43:25;;;;;;;3.90;2.20;;;3.20;16.90;;;;;;5092003;28;20444;-70
2021/11/28 03:45:54;;;;;;;2.60;2.40;;;3.30;99.90;;;;;;5092017;28;20812;-69
2021/11/28 03:48:21;;;;;;;2.73;2.17;;;3.20;98.80;;;;;;5098337;28;20458;-69
2021/11/28 03:50:48;;;;;;;3.57;2.23;;;3.10;68.60;;;;;;5096564;28;20454;-70
2021/11/28 03:53:15;;;;;;;4.20;2.50;;;3.30;17.20;;;;;;5092289;28;20486;-70
2021/11/28 03:55:42;;;;;;;5.40;2.17;;;3.50;1.00;;;;;;5087246;28;20940;-70
2021/11/28 03:58:10;;;;;;;4.60;2.00;;;;;;;;;;5091529;28;20448;-70
2021/11/28 04:00:38;;;;;;;3.50;1.90;;;3.40;1.00;;;;;;5090842;28;20452;-70
2021/11/28 04:03:07;;;;;;;2.07;1.90;;;3.30;1.00;;;;;;5091557;28;20507;-70
2021/11/28 04:05:34;;;;;;;97.73;18.80;;;3.00;33.60;;;;;;5091598;28;20467;-70
2021/11/28 04:08:00;;;;;;;5.00;2.90;;;3.20;99.90;;;;;;5091129;28;20448;-69
2021/11/28 04:10:28;;;;;;;1.93;1.73;;;3.30;97.10;;;;;;5090793;28;20450;-69
2021/11/28 04:12:54;;;;;;;6.40;2.03;;;3.20;1.00;;;;;;5090823;28;20491;-69
2021/11/28 04:15:22;;;;;;;2.80;2.00;;;3.10;92.20;;;;;;5091464;28;20448;-69
2021/11/28 04:17:50;;;;;;;8.13;2.70;;;3.10;65.60;;;;;;5091410;28;20459;-69
2021/11/28 04:20:18;;;;;;;4.40;1.70;;;3.10;21.20;;;;;;5090838;28;20445;-69
2021/11/28 04:22:45;;;;;;;2.30;2.03;;;3.10;54.50;;;;;;5090612;28;20535;-70
2021/11/28 04:25:14;;;;;;;2.90;1.77;;;3.00;89.40;;;;;;5090613;28;20449;-69
2021/11/28 04:27:41;;;;;;;2.63;2.07;;;3.20;47.50;;;;;;5091189;28;20531;-70
2021/11/28 04:30:10;;;;;;;3.70;2.20;;;3.30;69.50;;;;;;5090409;28;20469;-70
2021/11/28 04:32:37;;;;;;;2.20;1.80;;;3.40;71.00;;;;;;5090956;28;20543;-70
2021/11/28 04:35:05;;;;;;;3.10;2.13;;;3.50;1.00;;;;;;5090948;28;20472;-70
2021/11/28 04:37:33;;;;;;;4.90;2.10;;;3.60;1.00;;;;;;5091230;28;20452;-70
2021/11/28 04:40:00;;;;;;;6.33;2.20;;;3.60;1.00;;;;;;5090258;28;20936;-69
2021/11/28 04:42:28;;;;;;;2.20;1.97;;;3.60;1.00;;;;;;5090595;28;21012;-70
2021/11/28 04:44:56;;;;;;;3.17;2.27;;;3.70;1.00;;;;;;5090487;28;20467;-70
2021/11/28 04:47:23;;;;;;;2.97;1.90;;;3.70;1.00;;;;;;5091058;28;20445;-70
2021/11/28 04:49:50;;;;;;;2.93;2.17;;;3.60;1.00;;;;;;5084744;28;20566;-68
2021/11/28 04:52:17;;;;;;;2.63;1.63;;;3.50;1.00;;;;;;5090768;28;20529;-70
2021/11/28 04:54:45;;;;;;;4.93;2.43;;;3.50;1.00;;;;;;5090925;28;20476;-70
2021/11/28 04:57:12;;;;;;;2.53;2.00;;;3.50;1.00;;;;;;5090343;28;20502;-69
2021/11/28 04:59:39;;;;;;;1.63;1.50;;;3.50;1.00;;;;;;5090095;28;20440;-70
2021/11/28 05:02:06;;;;;;;4.00;1.90;;;3.30;1.00;;;;;;5090154;28;20869;-69
2021/11/28 05:04:33;;;;;;;3.40;2.30;;;3.40;94.70;;;;;;5090740;28;20462;-70
2021/11/28 05:07:00;;;;;;;6.17;2.63;;;3.50;83.50;;;;;;5090142;28;20525;-69
2021/11/28 05:09:27;;;;;;;4.73;2.70;;;3.50;1.00;;;;;;5090950;28;20531;-69
2021/11/28 05:11:55;;;;;;;2.27;2.07;;;3.30;25.40;;;;;;5089666;28;20536;-69
2021/11/28 05:14:22;;;;;;;2.63;1.63;;;3.10;90.20;;;;;;5090447;28;20483;-69
2021/11/28 05:16:50;;;;;;;4.03;2.03;;;3.10;99.90;;;;;;5091089;28;20529;-69
2021/11/28 05:19:18;;;;;;;2.30;2.10;;;3.10;99.90;;;;;;5090977;28;20449;-70
2021/11/28 05:21:45;;;;;;;2.30;1.80;;;3.10;99.90;;;;;;5097725;28;20448;-70
2021/11/28 05:24:12;;;;;;;3.17;2.20;;;3.30;99.90;;;;;;5106490;28;20468;-70
2021/11/28 05:26:39;;;;;;;3.30;1.83;;;3.30;99.90;;;;;;5102692;28;20818;-69
2021/11/28 05:29:07;;;;;;;2.93;2.17;;;3.30;28.90;;;;;;5090620;28;20445;-70
2021/11/28 05:31:34;;;;;;;2.13;1.80;;;3.20;1.00;;;;;;5090185;28;20962;-69
2021/11/28 05:34:01;;;;;;;2.70;1.57;;;3.20;99.90;;;;;;5090109;28;20496;-70
2021/11/28 05:36:27;;;;;;;2.67;2.07;;;3.00;99.90;;;;;;5090072;28;20527;-70
2021/11/28 05:38:54;;;;;;;2.70;1.30;;;3.00;99.90;;;;;;5090469;28;20472;-69
2021/11/28 05:41:21;;;;;;;2.40;1.67;;;3.00;99.90;;;;;;5090129;28;20436;-70
2021/11/28 05:43:49;;;;;;;2.40;2.03;;;3.00;99.90;;;;;;5090529;28;20453;-71
2021/11/28 05:46:18;;;;;;;5.50;2.10;;;3.10;99.90;;;;;;5091102;28;20453;-70
2021/11/28 05:48:45;;;;;;;2.53;1.60;;;3.10;99.90;;;;;;5090871;28;20444;-70
2021/11/28 05:51:12;;;;;;;2.70;1.60;;;3.10;99.90;;;;;;5089287;28;21019;-70
2021/11/28 05:53:39;;;;;;;2.77;1.60;;;3.10;99.90;;;;;;5090580;28;20827;-70
2021/11/28 05:56:06;;;;;;;4.20;1.60;;;3.10;99.90;;;;;;5090080;28;20449;-72
2021/11/28 05:58:33;;;;;;;4.50;1.90;;;3.00;99.90;;;;;;5090839;28;20441;-70
2021/11/28 06:01:00;;;;;;;3.10;2.10;;;3.00;99.90;;;;;;5089585;28;20960;-70
2021/11/28 06:03:28;;;;;;;4.00;1.90;;;2.90;99.90;;;;;;5090241;28;20536;-70
2021/11/28 06:05:56;;;;;;;2.27;1.70;;;3.00;99.90;;;;;;5090065;28;20459;-70
2021/11/28 06:08:23;;;;;;;3.07;1.73;;;3.10;99.90;;;;;;5090500;28;20485;-69
2021/11/28 06:10:50;;;;;;;4.27;1.90;;;3.10;99.90;;;;;;5090822;28;20444;-67
2021/11/28 06:13:17;;;;;;;3.33;1.83;;;3.10;99.90;;;;;;5093060;28;20952;-69
2021/11/28 06:15:44;;;;;;;4.13;1.70;;;3.10;99.90;;;;;;5093811;28;20535;-70
2021/11/28 06:18:12;;;;;;;5.30;1.90;;;2.90;99.90;;;;;;5093156;28;20609;-69
2021/11/28 06:20:41;;;;;;;1.80;1.50;;;2.90;99.90;;;;;;5080083;28;20489;-69
2021/11/28 06:23:08;;;;;;;1.90;1.60;;;3.10;99.90;;;;;;5093055;28;20866;-69
2021/11/28 06:25:35;;;;;;;2.13;1.73;;;3.00;57.60;;;;;;5093396;28;20538;-69
2021/11/28 06:28:02;;;;;;;3.90;1.93;;;3.10;99.90;;;;;;5092854;28;20479;-69
2021/11/28 06:30:30;;;;;;;3.30;1.80;;;3.10;99.90;;;;;;5093354;28;20820;-69
2021/11/28 06:32:58;;;;;;;4.87;1.90;;;3.10;99.90;;;;;;5092947;28;20456;-69
2021/11/28 06:35:25;;;;;;;3.00;1.77;;;3.10;99.90;;;;;;5052995;28;20560;-69
2021/11/28 06:37:53;;;;;;;3.27;2.10;;;3.00;98.20;;;;;;5052742;28;20529;-68
2021/11/28 06:40:21;;;;;;;2.33;2.13;;;3.00;99.90;;;;;;5052798;28;20523;-69
2021/11/28 06:42:48;;;;;;;3.80;2.13;;;3.10;99.90;;;;;;5053360;28;20512;-70
2021/11/28 06:45:15;;;;;;;5.17;2.40;;;3.10;99.90;;;;;;5052827;28;20450;-69
2021/11/28 06:47:42;;;;;;;4.77;2.43;;;3.00;99.90;;;;;;5052849;28;20899;-70
2021/11/28 06:50:10;;;;;;;3.43;1.60;;;3.00;99.90;;;;;;5052352;28;20533;-69
2021/11/28 06:52:37;;;;;;;3.10;2.17;;;3.00;99.90;;;;;;5053044;28;20442;-69
2021/11/28 06:55:06;;;;;;;3.43;2.63;;;3.00;99.90;;;;;;5052381;28;20918;-69
2021/11/28 06:57:33;;;;;;;2.80;2.00;;;2.90;99.90;;;;;;5052834;28;20492;-69
2021/11/28 07:00:00;;;;;;;4.70;2.03;;;3.00;99.90;;;;;;5051856;28;20526;-70
2021/11/28 07:02:27;;;;;;;3.93;2.30;;;3.10;99.90;;;;;;5052416;28;20474;-69
2021/11/28 07:04:54;;;;;;;3.07;1.93;;;3.20;99.90;;;;;;5051955;28;20996;-69
2021/11/28 07:07:20;;;;;;;3.50;1.87;;;3.20;83.30;;;;;;5052505;28;20883;-69
2021/11/28 07:09:48;;;;;;;2.40;1.80;;;;;;;;;;5052324;28;20953;-69
2021/11/28 07:12:16;;;;;;;2.70;2.20;;;;;;;;;;5051740;28;20446;-69
2021/11/28 07:14:43;;;;;;;3.43;1.57;;;3.40;73.20;;;;;;5052609;28;20487;-70
2021/11/28 07:17:10;;;;;;;3.10;2.10;;;3.20;92.10;;;;;;5051671;28;20461;-70
2021/11/28 07:19:37;;;;;;;2.97;1.77;;;3.10;99.90;;;;;;5052632;28;20451;-70
2021/11/28 07:22:04;;;;;;;3.90;2.13;;;3.20;99.90;;;;;;5051038;28;20450;-69
2021/11/28 07:24:31;;;;;;;5.00;1.70;;;3.20;99.90;;;;;;5052718;28;20454;-70
2021/11/28 07:26:58;;;;;;;3.87;1.90;;;3.10;99.90;;;;;;5051530;28;20449;-71
2021/11/28 07:29:26;;;;;;;1.70;1.60;;;3.30;99.90;;;;;;5052205;28;20468;-70
2021/11/28 07:31:54;;;;;;;2.07;1.60;;;3.10;99.90;;;;;;5051286;28;20529;-69
2021/11/28 07:34:20;;;;;;;3.33;2.23;;;3.10;99.90;;;;;;5074341;28;20911;-70
2021/11/28 07:36:47;;;;;;;4.97;2.73;;;3.20;99.90;;;;;;5091862;28;20447;-70
2021/11/28 07:39:14;;;;;;;3.50;2.50;;;3.10;99.90;;;;;;5091632;28;20475;-70
2021/11/28 07:41:41;;;;;;;3.23;2.17;;;3.30;99.90;;;;;;5091951;28;20861;-70
2021/11/28 07:44:08;;;;;;;4.47;3.43;;;3.20;99.90;;;;;;5091658;28;20452;-69
2021/11/28 07:46:37;;;;;;;4.53;2.50;;;3.30;99.90;;;;;;5092341;28;20528;-70
2021/11/28 07:49:05;;;;;;;5.27;2.33;;;3.30;99.90;;;;;;5091870;28;20461;-70
2021/11/28 07:51:32;;;;;;;3.40;2.47;;;3.40;99.90;;;;;;5091749;28;20812;-70
2021/11/28 07:54:01;;;;;;;3.27;2.00;;;3.30;99.90;;;;;;5091315;28;20450;-70
2021/11/28 07:56:28;;;;;;;2.93;2.07;;;3.30;93.30;;;;;;5091775;28;20928;-70
2021/11/28 07:58:55;;;;;;;4.57;2.03;;;3.20;99.90;;;;;;5091295;28;20463;-70
2021/11/28 08:01:22;;;;;;;3.37;2.17;;;3.40;99.90;;;;;;5091195;28;20452;-69
2021/11/28 08:03:51;;;;;;;2.73;1.93;;;3.40;99.90;;;;;;5091880;28;20456;-69
2021/11/28 08:06:18;;;;;;;3.67;2.00;;;3.40;99.90;;;;;;5091601;28;20444;-70
2021/11/28 08:08:45;;;;;;;4.17;2.33;;;3.40;99.90;;;;;;5092058;28;20822;-69
2021/11/28 08:11:13;;;;;;;5.97;2.13;;;3.30;99.90;;;;;;5090765;28;20531;-70
2021/11/28 08:13:40;;;;;;;3.83;2.60;;;3.50;99.90;;;;;;5091449;28;20454;-70
2021/11/28 08:16:07;;;;;;;2.60;2.30;;;3.60;99.90;;;;;;5090941;28;20927;-69
2021/11/28 08:18:33;;;;;;;6.03;3.47;;;3.60;99.90;;;;;;5091240;28;20529;-72
2021/11/28 08:21:02;;;;;;;3.50;2.40;;;3.70;99.90;;;;;;5090120;28;20445;-71
2021/11/28 08:23:29;;;;;;;2.57;2.03;;;3.70;31.50;;;;;;5091447;28;20478;-71
2021/11/28 08:25:57;;;;;;;3.30;2.43;;;3.60;1.00;;;;;;5090905;28;20491;-71
2021/11/28 08:28:24;;;;;;;5.80;1.87;;;3.60;25.80;;;;;;5091166;28;20437;-71
2021/11/28 08:30:51;;;;;;;3.10;1.67;;;3.50;1.00;;;;;;5089082;28;20444;-71
2021/11/28 08:33:18;;;;;;;6.43;3.53;;;3.80;47.40;;;;;;5089394;28;20457;-71
2021/11/28 08:35:45;;;;;;;4.93;2.47;;;3.60;1.00;;;;;;5090480;28;20581;-71
2021/11/28 08:38:14;;;;;;;3.80;2.00;;;3.60;1.00;;;;;;5089210;28;20924;-71
2021/11/28 08:40:42;;;;;;;3.23;2.00;;;3.60;1.00;;;;;;5090188;28;20441;-71
2021/11/28 08:43:10;;;;;;;3.13;2.50;;;3.80;1.00;;;;;;5089858;28;20531;-72
2021/11/28 08:45:37;;;;;;;2.60;2.10;;;3.80;99.90;;;;;;5089078;28;20959;-72
2021/11/28 08:48:04;;;;;;;3.33;1.87;;;3.70;99.90;;;;;;5087794;28;20460;-71
2021/11/28 08:50:31;;;;;;;2.93;2.20;;;3.70;99.90;;;;;;5089161;28;20532;-72
2021/11/28 08:52:58;;;;;;;4.23;2.03;;;3.70;99.90;;;;;;5085586;28;21414;-71
2021/11/28 08:55:27;;;;;;;3.17;2.40;;;3.80;1.00;;;;;;5088364;28;20511;-70
2021/11/28 08:57:54;;;;;;;2.93;2.27;;;3.80;99.90;;;;;;5087069;28;20807;-69
2021/11/28 09:00:21;;;;;;;3.67;2.30;;;3.70;99.90;;;;;;5087605;28;20528;-71
2021/11/28 09:02:49;;;;;;;2.83;1.80;;;3.90;99.90;;;;;;5084319;28;20545;-71
2021/11/28 09:05:19;;;;;;;3.37;2.30;;;3.80;99.90;;;;;;5086771;28;20464;-73
2021/11/28 09:07:46;;;;;;;3.10;2.20;;;4.00;99.90;;;;;;5078307;28;20456;-74
2021/11/28 09:10:14;;;;;;;2.37;1.90;;;4.00;97.40;;;;;;5087417;28;20454;-73
2021/11/28 09:12:43;;;;;;;3.00;2.00;;;4.10;31.10;;;;;;5087713;28;20565;-72
2021/11/28 09:15:11;;;;;;;5.70;2.47;;;4.00;1.00;;;;;;5087077;28;20808;-69
2021/11/28 09:17:42;;;;;;;3.23;2.30;;;4.10;99.90;;;;;;5087898;28;20502;-70
2021/11/28 09:20:10;;;;;;;4.10;2.50;;;4.00;99.90;;;;;;5085713;28;20448;-69
2021/11/28 09:25:24;;;;;;;3.70;2.57;;;4.10;99.90;;;;;;5087813;28;20451;-70
2021/11/28 09:27:56;;;;;;;3.33;2.40;;;4.20;99.90;;;;;;5087525;28;20459;-72
2021/11/28 09:30:25;;;;;;;2.67;2.03;;;4.20;98.70;;;;;;5082218;28;20436;-69
2021/11/28 09:32:53;;;;;;;3.50;2.40;;;4.20;99.90;;;;;;5087757;28;20459;-69
2021/11/28 09:35:20;;;;;;;3.20;2.10;;;4.20;1.00;;;;;;5084888;28;20534;-68
2021/11/28 09:37:47;;;;;;;5.87;2.30;;;4.30;86.40;;;;;;5086730;28;20539;-69
2021/11/28 09:40:14;;;;;;;4.00;2.80;;;4.50;1.00;;;;;;5087081;28;20448;-67
2021/11/28 09:42:51;;;;;;;3.10;2.20;;;4.60;1.00;;;;;;5087584;28;20545;-68
2021/11/28 09:45:20;;;;;;;3.97;3.10;;;4.40;99.90;;;;;;5088288;28;20892;-68
2021/11/28 09:47:48;;;;;;;3.90;2.80;;;4.40;99.90;;;;;;5092054;28;20534;-68
2021/11/28 09:50:15;;;;;;;3.90;2.27;;;4.30;99.90;;;;;;5089628;28;20451;-67
2021/11/28 09:52:44;;;;;;;2.97;2.37;;;4.30;1.00;;;;;;5087653;28;20541;-68
2021/11/28 09:55:13;;;;;;;2.40;2.03;;;4.50;1.00;;;;;;5091292;28;20491;-67
2021/11/28 09:57:41;;;;;;;3.40;1.90;;;4.40;1.00;;;;;;5091010;28;20897;-68
2021/11/28 10:00:10;;;;;;;4.23;2.57;;;4.50;1.00;;;;;;5090750;28;20454;-68
2021/11/28 10:02:40;;;;;;;10.90;2.83;;;4.50;1.00;;;;;;5090373;28;20464;-67
2021/11/28 10:05:09;;;;;;;3.67;2.40;;;4.50;1.00;;;;;;5090546;28;20542;-67
2021/11/28 10:07:40;;;;;;;3.20;1.90;;;4.60;99.90;;;;;;5091150;28;20522;-68
2021/11/28 10:10:08;;;;;;;2.60;1.90;;;4.50;99.90;;;;;;5090235;28;20529;-67
2021/11/28 10:12:42;;;;;;;4.40;3.20;;;4.50;1.00;;;;;;5090656;28;20553;-68
2021/11/28 10:15:12;;;;;;;2.37;2.17;;;4.50;1.00;;;;;;5090851;28;20476;-67
2021/11/28 10:17:40;;;;;;;2.17;1.90;;;4.60;1.00;;;;;;5091011;28;20554;-68
2021/11/28 10:20:10;;;;;;;2.73;2.00;;;4.70;1.00;;;;;;5088183;28;20440;-68
2021/11/28 10:22:38;;;;;;;2.27;1.77;;;4.70;1.00;;;;;;5090696;28;21023;-69
2021/11/28 10:25:15;;;;;;;2.97;2.10;;;4.90;1.00;;;;;;5089733;28;20461;-68
2021/11/28 10:27:43;;;;;;;2.83;2.40;;;4.90;1.00;;;;;;5082821;28;20447;-68
2021/11/28 10:30:13;;;;;;;2.50;2.13;;;5.00;99.90;;;;;;5090053;28;21061;-68
2021/11/28 10:32:49;;;;;;;3.00;2.40;;;4.80;1.00;;;;;;5089471;28;20995;-67
2021/11/28 10:35:16;;;;;;;3.63;2.33;;;4.90;1.00;;;;;;5083930;28;20499;-69
2021/11/28 10:37:45;;;;;;;3.40;2.10;;;5.00;99.90;;;;;;5090014;28;20440;-69
2021/11/28 10:40:17;;;;;;;3.30;1.50;;;4.90;69.40;;;;;;5089853;28;20805;-67
2021/11/28 10:42:48;;;;;;;6.27;2.43;;;5.00;99.90;;;;;;5089978;28;20450;-69
2021/11/28 10:45:16;;;;;;;2.70;1.80;;;5.10;1.00;;;;;;5087944;28;20651;-67
2021/11/28 10:47:47;;;;;;;4.50;2.00;;;5.00;1.00;;;;;;5089527;28;20455;-68
2021/11/28 10:50:19;;;;;;;3.00;2.37;;;4.90;99.90;;;;;;5088348;28;20535;-68
2021/11/28 10:52:50;;;;;;;3.23;1.83;;;5.00;99.90;;;;;;5089367;28;20454;-67
2021/11/28 10:55:22;;;;;;;3.23;2.30;;;5.00;1.00;;;;;;5089765;28;20467;-67
2021/11/28 10:58:05;;;;;;;1.80;1.50;;;5.10;99.90;;;;;;5089015;28;20956;-68
2021/11/28 11:00:32;;;;;;;1.87;1.40;;;5.00;99.90;;;;;;5086392;28;20533;-67
2021/11/28 11:03:13;;;;;;;4.17;2.30;;;5.00;1.00;;;;;;5088860;28;20543;-68
2021/11/28 11:05:40;;;;;;;2.90;1.37;;;4.70;1.00;;;;;;5089235;28;20574;-67
2021/11/28 11:08:07;;;;;;;1.83;1.57;;;4.60;99.90;;;;;;5088671;28;20447;-68
2021/11/28 11:10:34;;;;;;;3.60;1.77;;;4.80;44.20;;;;;;5090068;28;20548;-68
2021/11/28 11:13:02;;;;;;;3.93;1.90;;;4.60;1.00;;;;;;5088023;28;20950;-67
2021/11/28 11:15:34;;;;;;;1.73;1.53;;;4.60;1.00;;;;;;5089997;28;20570;-68
2021/11/28 11:18:04;;;;;;;6.60;1.63;;;4.60;1.00;;;;;;5081445;28;20476;-67
2021/11/28 11:20:33;;;;;;;2.30;1.53;;;4.60;1.00;;;;;;5087444;28;20813;-67
2021/11/28 11:23:01;;;;;;;2.00;1.67;;;4.70;99.90;;;;;;5088596;28;20474;-67
2021/11/28 11:25:33;;;;;;;2.40;1.70;;;5.00;1.00;;;;;;5089265;28;20487;-67
2021/11/28 11:28:14;;;;;;;2.37;1.87;;;5.00;99.90;;;;;;5088651;28;20441;-67
2021/11/28 11:30:43;;;;;;;1.30;1.07;;;5.00;1.00;;;;;;5089087;28;20528;-66
2021/11/28 11:33:11;;;;;;;1.60;1.50;;;4.90;1.00;;;;;;5087676;28;20452;-66
2021/11/28 11:35:43;;;;;;;11.03;6.47;;;5.00;1.00;;;;;;5088163;28;20488;-67
2021/11/28 11:38:13;;;;;;;3.20;2.90;;;5.10;1.00;;;;;;5087759;28;20453;-66
2021/11/28 11:40:40;;;;;;;1.90;1.10;;;5.30;1.00;;;;;;5088552;28;20894;-64
2021/11/28 11:43:08;;;;;;;3.23;1.50;;;5.30;1.00;;;;;;5087617;28;20449;-67
2021/11/28 11:45:37;;;;;;;4.13;1.73;;;5.30;1.00;;;;;;5087360;28;20460;-67
2021/11/28 11:48:07;;;;;;;1.70;1.53;;;5.50;1.00;;;;;;5086371;28;20441;-67
2021/11/28 11:50:36;;;;;;;3.93;1.93;;;5.60;16.50;;;;;;5086909;28;20455;-67
2021/11/28 11:53:05;;;;;;;2.10;1.40;;;5.70;99.90;;;;;;5086860;28;20537;-65
2021/11/28 11:55:38;;;;;;;2.30;1.60;;;5.60;1.00;;;;;;5086938;28;20623;-67
2021/11/28 11:58:34;;;;;;;2.60;1.57;;;5.50;1.00;;;;;;5086792;28;20444;-66
2021/11/28 12:01:04;;;;;;;2.50;1.10;;;5.40;1.00;;;;;;5073505;28;20480;-67
2021/11/28 12:03:46;;;;;;;2.83;1.57;;;5.40;1.00;;;;;;5087248;28;20559;-67
2021/11/28 12:06:14;;;;;;;3.23;1.60;;;5.30;1.00;;;;;;5085768;28;20452;-67
2021/11/28 12:08:50;;;;;;;2.47;1.47;;;5.40;1.00;;;;;;5087004;28;20459;-67
2021/11/28 12:11:21;;;;;;;2.47;1.20;;;5.40;1.00;;;;;;5083546;28;20462;-67
2021/11/28 12:13:57;;;;;;;1.57;1.23;;;5.60;99.90;;;;;;5082985;28;20453;-67
2021/11/28 12:16:26;;;;;;;5.30;3.13;;;5.70;99.90;;;;;;5085599;28;20559;-65
2021/11/28 12:18:54;;;;;;;3.63;1.60;;;5.60;1.00;;;;;;5084078;28;20683;-67
2021/11/28 12:21:38;;;;;;;2.43;1.37;;;5.70;99.90;;;;;;5086184;28;20448;-67
2021/11/28 12:24:09;;;;;;;1.20;1.03;;;5.70;99.90;;;;;;5087507;28;20517;-68
2021/11/28 12:26:38;;;;;;;1.53;1.10;;;5.50;99.90;;;;;;5088167;28;20835;-67
2021/11/28 12:29:47;;;;;;;1.50;1.20;;;5.50;31.90;;;;;;5087435;28;20543;-68
2021/11/28 12:32:29;;;;;;;1.37;1.17;;;5.40;83.20;;;;;;5082816;28;20443;-68
2021/11/28 12:35:05;;;;;;;1.40;1.30;;;5.30;38.40;;;;;;5085275;28;20603;-64
2021/11/28 12:37:48;;;;;;;2.30;1.30;;;5.40;99.90;;;;;;5087408;28;20525;-68
2021/11/28 12:40:28;;;;;;;1.47;1.13;;;5.50;83.90;;;;;;5077441;28;20582;-68
2021/11/28 12:42:55;;;;;;;2.47;1.87;;;5.60;99.90;;;;;;5086914;28;20529;-68
2021/11/28 12:45:35;;;;;;;1.77;1.33;;;5.70;1.00;;;;;;5087622;28;20531;-67
2021/11/28 12:48:08;;;;;;;4.20;1.60;;;5.80;1.00;;;;;;5084773;28;20495;-67
2021/11/28 12:51:05;;;;;;;4.90;2.60;;;5.80;34.50;;;;;;5079326;28;20520;-68
2021/11/28 12:53:42;;;;;;;4.00;3.20;;;5.80;1.00;;;;;;5084125;28;20452;-68
2021/11/28 12:56:20;;;;;;;14.67;7.30;;;5.80;99.90;;;;;;5086898;28;20503;-67
2021/11/28 12:59:16;;;;;;;10.10;6.07;;;5.70;1.00;;;;;;5086821;28;20452;-70
2021/11/28 13:01:54;;;;;;;4.40;4.00;;;5.60;1.00;;;;;;5082469;28;20459;-68
2021/11/28 13:04:47;;;;;;;5.07;4.07;;;5.60;1.00;;;;;;5087519;28;20563;-68
2021/11/28 13:07:38;;;;;;;6.20;4.93;;;5.80;99.90;;;;;;5086531;28;20925;-67
2021/11/28 13:10:21;;;;;;;6.87;4.47;;;5.70;99.90;;;;;;5069587;28;20919;-67
2021/11/28 13:12:48;;;;;;;6.30;4.70;;;5.60;1.00;;;;;;5087871;28;20448;-66
2021/11/28 13:15:20;;;;;;;8.60;6.67;;;5.60;1.00;;;;;;5087491;28;20532;-67
2021/11/28 13:17:48;;;;;;;4.60;3.77;;;5.70;99.90;;;;;;5087481;28;20560;-67
2021/11/28 13:20:14;;;;;;;4.00;3.53;;;5.70;99.90;;;;;;5086851;28;20441;-68